sensor_id;sensor_type;location;lat;lon;timestamp;pressure;altitude;pressure_sealevel;temperature;humidity
17607;BME280;8922;52.240;20.980;2022-12-20T00:02:09;100998.41;;;-1.36;72.61
17607;BME280;8922;52.240;20.980;2022-12-20T00:04:39;100999.53;;;-1.31;72.54
17607;BME280;8922;52.240;20.980;2022-12-20T00:07:10;100992.88;;;-1.29;72.68
17607;BME280;8922;52.240;20.980;2022-12-20T00:09:39;100984.50;;;-1.28;73.19
17607;BME280;8922;52.240;20.980;2022-12-20T00:12:07;100979.63;;;-1.25;73.38
17607;BME280;8922;52.240;20.980;2022-12-20T00:14:36;100970.44;;;-1.23;73.67
17607;BME280;8922;52.240;20.980;2022-12-20T00:17:04;100979.75;;;-1.22;73.95
17607;BME280;8922;52.240;20.980;2022-12-20T00:19:33;100970.59;;;-1.20;74.19
17607;BME280;8922;52.240;20.980;2022-12-20T00:22:04;100959.69;;;-1.19;74.27
17607;BME280;8922;52.240;20.980;2022-12-20T00:24:33;100953.81;;;-1.18;74.45
17607;BME280;8922;52.240;20.980;2022-12-20T00:27:03;100964.91;;;-1.16;74.50
17607;BME280;8922;52.240;20.980;2022-12-20T00:29:32;100957.38;;;-1.14;74.95
17607;BME280;8922;52.240;20.980;2022-12-20T00:32:00;100941.44;;;-1.13;75.10
17607;BME280;8922;52.240;20.980;2022-12-20T00:34:29;100941.50;;;-1.12;75.08
17607;BME280;8922;52.240;20.980;2022-12-20T00:36:58;100949.47;;;-1.04;75.23
17607;BME280;8922;52.240;20.980;2022-12-20T00:39:28;100953.97;;;-0.99;75.70
17607;BME280;8922;52.240;20.980;2022-12-20T00:41:58;100952.53;;;-0.93;75.59
17607;BME280;8922;52.240;20.980;2022-12-20T00:44:28;100946.97;;;-0.86;75.46
17607;BME280;8922;52.240;20.980;2022-12-20T00:46:56;100941.09;;;-0.85;75.80
17607;BME280;8922;52.240;20.980;2022-12-20T00:49:25;100943.00;;;-0.81;75.84
17607;BME280;8922;52.240;20.980;2022-12-20T00:51:53;100938.81;;;-0.81;75.94
17607;BME280;8922;52.240;20.980;2022-12-20T00:54:22;100933.88;;;-0.78;76.05
17607;BME280;8922;52.240;20.980;2022-12-20T00:56:52;100935.06;;;-0.71;76.27
17607;BME280;8922;52.240;20.980;2022-12-20T00:59:21;100936.88;;;-0.68;76.30
17607;BME280;8922;52.240;20.980;2022-12-20T01:01:50;100930.00;;;-0.71;76.55
17607;BME280;8922;52.240;20.980;2022-12-20T01:04:20;100927.81;;;-0.63;76.68
17607;BME280;8922;52.240;20.980;2022-12-20T01:06:48;100927.19;;;-0.59;76.82
17607;BME280;8922;52.240;20.980;2022-12-20T01:09:17;100923.94;;;-0.57;77.57
17607;BME280;8922;52.240;20.980;2022-12-20T01:11:45;100914.66;;;-0.56;77.72
17607;BME280;8922;52.240;20.980;2022-12-20T01:14:16;100919.16;;;-0.51;77.67
17607;BME280;8922;52.240;20.980;2022-12-20T01:16:46;100917.56;;;-0.49;78.16
17607;BME280;8922;52.240;20.980;2022-12-20T01:19:17;100915.97;;;-0.46;78.64
17607;BME280;8922;52.240;20.980;2022-12-20T01:21:45;100922.06;;;-0.43;78.83
17607;BME280;8922;52.240;20.980;2022-12-20T01:24:19;100909.59;;;-0.38;78.68
17607;BME280;8922;52.240;20.980;2022-12-20T01:26:47;100916.53;;;-0.34;79.31
17607;BME280;8922;52.240;20.980;2022-12-20T01:29:17;100912.50;;;-0.31;79.52
17607;BME280;8922;52.240;20.980;2022-12-20T01:31:46;100914.22;;;-0.30;79.51
17607;BME280;8922;52.240;20.980;2022-12-20T01:34:17;100900.03;;;-0.26;79.82
17607;BME280;8922;52.240;20.980;2022-12-20T01:36:46;100888.31;;;-0.24;80.24
17607;BME280;8922;52.240;20.980;2022-12-20T01:39:16;100893.59;;;-0.19;79.60
17607;BME280;8922;52.240;20.980;2022-12-20T01:41:46;100869.22;;;-0.17;80.19
17607;BME280;8922;52.240;20.980;2022-12-20T01:45:06;100853.16;;;-0.18;80.25
17607;BME280;8922;52.240;20.980;2022-12-20T01:47:36;100865.00;;;-0.17;79.96
17607;BME280;8922;52.240;20.980;2022-12-20T01:50:07;100862.63;;;-0.14;80.87
17607;BME280;8922;52.240;20.980;2022-12-20T01:52:40;100863.41;;;-0.15;81.20
17607;BME280;8922;52.240;20.980;2022-12-20T01:55:15;100854.25;;;-0.11;81.30
17607;BME280;8922;52.240;20.980;2022-12-20T01:57:49;100841.69;;;-0.10;81.49
17607;BME280;8922;52.240;20.980;2022-12-20T02:00:22;100836.75;;;-0.07;81.93
17607;BME280;8922;52.240;20.980;2022-12-20T02:02:51;100836.81;;;-0.05;81.45
17607;BME280;8922;52.240;20.980;2022-12-20T02:05:22;100829.41;;;-0.01;81.81
17607;BME280;8922;52.240;20.980;2022-12-20T02:07:54;100830.34;;;0.02;81.81
17607;BME280;8922;52.240;20.980;2022-12-20T02:10:34;100822.81;;;0.03;81.97
17607;BME280;8922;52.240;20.980;2022-12-20T02:13:26;100827.28;;;0.09;81.81
17607;BME280;8922;52.240;20.980;2022-12-20T02:16:03;100825.66;;;0.11;81.72
17607;BME280;8922;52.240;20.980;2022-12-20T02:18:37;100821.59;;;0.14;81.72
17607;BME280;8922;52.240;20.980;2022-12-20T02:21:20;100822.59;;;0.18;81.15
17607;BME280;8922;52.240;20.980;2022-12-20T02:24:31;100813.31;;;0.18;81.64
17607;BME280;8922;52.240;20.980;2022-12-20T02:30:16;100806.66;;;0.20;81.80
17607;BME280;8922;52.240;20.980;2022-12-20T02:32:56;100823.59;;;0.21;81.86
17607;BME280;8922;52.240;20.980;2022-12-20T02:35:30;100807.53;;;0.21;81.75
17607;BME280;8922;52.240;20.980;2022-12-20T02:38:01;100807.53;;;0.21;81.66
17607;BME280;8922;52.240;20.980;2022-12-20T02:40:38;100811.88;;;0.23;82.42
17607;BME280;8922;52.240;20.980;2022-12-20T02:43:09;100806.06;;;0.26;82.42
17607;BME280;8922;52.240;20.980;2022-12-20T02:45:56;100800.19;;;0.27;82.43
17607;BME280;8922;52.240;20.980;2022-12-20T02:48:29;100808.97;;;0.35;82.58
17607;BME280;8922;52.240;20.980;2022-12-20T02:51:00;100812.31;;;0.34;82.77
17607;BME280;8922;52.240;20.980;2022-12-20T02:53:30;100808.94;;;0.34;82.70
17607;BME280;8922;52.240;20.980;2022-12-20T02:56:12;100806.44;;;0.35;82.99
17607;BME280;8922;52.240;20.980;2022-12-20T02:58:48;100790.44;;;0.36;82.94
17607;BME280;8922;52.240;20.980;2022-12-20T03:01:25;100788.88;;;0.40;83.37
17607;BME280;8922;52.240;20.980;2022-12-20T03:03:59;100782.22;;;0.42;82.94
17607;BME280;8922;52.240;20.980;2022-12-20T03:06:30;100786.63;;;0.46;83.26
17607;BME280;8922;52.240;20.980;2022-12-20T03:09:01;100785.06;;;0.50;83.01
17607;BME280;8922;52.240;20.980;2022-12-20T03:11:30;100774.94;;;0.50;83.07
17607;BME280;8922;52.240;20.980;2022-12-20T03:13:58;100785.19;;;0.53;82.89
17607;BME280;8922;52.240;20.980;2022-12-20T03:16:28;100787.06;;;0.57;83.01
17607;BME280;8922;52.240;20.980;2022-12-20T03:18:57;100782.88;;;0.59;82.95
17607;BME280;8922;52.240;20.980;2022-12-20T03:21:25;100781.25;;;0.59;83.06
17607;BME280;8922;52.240;20.980;2022-12-20T03:23:54;100779.72;;;0.63;83.32
17607;BME280;8922;52.240;20.980;2022-12-20T03:26:22;100787.34;;;0.64;83.30
17607;BME280;8922;52.240;20.980;2022-12-20T03:29:00;100799.41;;;0.70;83.28
17607;BME280;8922;52.240;20.980;2022-12-20T03:31:30;100785.09;;;0.70;82.88
17607;BME280;8922;52.240;20.980;2022-12-20T03:34:00;100791.16;;;0.74;83.11
17607;BME280;8922;52.240;20.980;2022-12-20T03:36:30;100783.59;;;0.76;83.14
17607;BME280;8922;52.240;20.980;2022-12-20T03:49:35;100774.59;;;0.84;83.34
17607;BME280;8922;52.240;20.980;2022-12-20T03:52:04;100772.13;;;0.85;82.83
17607;BME280;8922;52.240;20.980;2022-12-20T03:54:33;100778.00;;;0.84;82.93
17607;BME280;8922;52.240;20.980;2022-12-20T03:57:02;100783.31;;;0.90;83.32
17607;BME280;8922;52.240;20.980;2022-12-20T03:59:31;100768.09;;;0.90;83.50
17607;BME280;8922;52.240;20.980;2022-12-20T04:02:02;100773.28;;;0.93;83.41
17607;BME280;8922;52.240;20.980;2022-12-20T04:04:31;100770.75;;;0.93;83.26
17607;BME280;8922;52.240;20.980;2022-12-20T04:07:01;100775.03;;;0.94;82.89
17607;BME280;8922;52.240;20.980;2022-12-20T04:09:30;100770.81;;;0.95;83.06
17607;BME280;8922;52.240;20.980;2022-12-20T04:12:00;100781.81;;;0.95;83.27
17607;BME280;8922;52.240;20.980;2022-12-20T04:14:29;100780.94;;;0.95;83.00
17607;BME280;8922;52.240;20.980;2022-12-20T04:16:59;100763.28;;;0.96;83.29
17607;BME280;8922;52.240;20.980;2022-12-20T04:19:27;100768.47;;;1.00;83.24
17607;BME280;8922;52.240;20.980;2022-12-20T04:22:01;100745.69;;;1.01;83.29
17607;BME280;8922;52.240;20.980;2022-12-20T04:24:32;100744.94;;;1.04;83.00
17607;BME280;8922;52.240;20.980;2022-12-20T04:27:00;100742.31;;;1.02;83.06
17607;BME280;8922;52.240;20.980;2022-12-20T04:32:03;100733.94;;;1.03;82.64
17607;BME280;8922;52.240;20.980;2022-12-20T04:34:32;100739.06;;;1.05;82.41
17607;BME280;8922;52.240;20.980;2022-12-20T04:37:01;100733.03;;;1.03;82.61
17607;BME280;8922;52.240;20.980;2022-12-20T04:39:30;100742.41;;;1.04;82.43
17607;BME280;8922;52.240;20.980;2022-12-20T04:41:58;100744.88;;;1.02;82.71
17607;BME280;8922;52.240;20.980;2022-12-20T04:44:27;100758.31;;;1.00;82.35
17607;BME280;8922;52.240;20.980;2022-12-20T04:46:55;100749.03;;;1.00;82.62
17607;BME280;8922;52.240;20.980;2022-12-20T04:49:24;100759.19;;;1.00;82.54
17607;BME280;8922;52.240;20.980;2022-12-20T04:51:53;100754.03;;;0.99;82.48
17607;BME280;8922;52.240;20.980;2022-12-20T04:54:44;100760.78;;;0.98;82.65
17607;BME280;8922;52.240;20.980;2022-12-20T04:57:12;100763.28;;;0.96;82.68
17607;BME280;8922;52.240;20.980;2022-12-20T04:59:41;100760.78;;;0.98;82.86
17607;BME280;8922;52.240;20.980;2022-12-20T05:02:10;100750.72;;;1.00;82.55
17607;BME280;8922;52.240;20.980;2022-12-20T05:04:39;100756.81;;;1.05;82.76
17607;BME280;8922;52.240;20.980;2022-12-20T05:07:08;100744.13;;;1.05;82.81
17607;BME280;8922;52.240;20.980;2022-12-20T05:09:38;100731.44;;;1.05;82.83
17607;BME280;8922;52.240;20.980;2022-12-20T05:12:08;100726.59;;;1.11;82.69
17607;BME280;8922;52.240;20.980;2022-12-20T05:14:38;100731.69;;;1.11;82.60
17607;BME280;8922;52.240;20.980;2022-12-20T05:17:07;100726.59;;;1.11;82.56
17607;BME280;8922;52.240;20.980;2022-12-20T05:19:36;100726.69;;;1.14;82.32
17607;BME280;8922;52.240;20.980;2022-12-20T05:22:05;100723.38;;;1.15;82.41
17607;BME280;8922;52.240;20.980;2022-12-20T05:24:51;100720.88;;;1.16;82.41
17607;BME280;8922;52.240;20.980;2022-12-20T05:27:54;100724.38;;;1.20;82.17
17607;BME280;8922;52.240;20.980;2022-12-20T05:30:24;100727.88;;;1.22;82.50
17607;BME280;8922;52.240;20.980;2022-12-20T05:32:52;100717.81;;;1.25;82.63
17607;BME280;8922;52.240;20.980;2022-12-20T05:35:21;100707.59;;;1.24;82.19
17607;BME280;8922;52.240;20.980;2022-12-20T05:37:50;100714.53;;;1.28;82.28
17607;BME280;8922;52.240;20.980;2022-12-20T05:40:18;100705.22;;;1.28;81.90
17607;BME280;8922;52.240;20.980;2022-12-20T05:42:47;100709.56;;;1.31;82.12
17607;BME280;8922;52.240;20.980;2022-12-20T05:45:17;100714.75;;;1.34;81.84
17607;BME280;8922;52.240;20.980;2022-12-20T05:47:45;100729.13;;;1.33;81.78
17607;BME280;8922;52.240;20.980;2022-12-20T05:50:14;100727.44;;;1.34;81.76
17607;BME280;8922;52.240;20.980;2022-12-20T05:52:45;100720.56;;;1.31;82.08
17607;BME280;8922;52.240;20.980;2022-12-20T05:55:13;100730.09;;;1.37;81.77
17607;BME280;8922;52.240;20.980;2022-12-20T05:57:43;100731.81;;;1.38;81.71
17607;BME280;8922;52.240;20.980;2022-12-20T06:00:14;100726.78;;;1.39;81.47
17607;BME280;8922;52.240;20.980;2022-12-20T06:02:44;100726.09;;;1.43;82.20
17607;BME280;8922;52.240;20.980;2022-12-20T06:05:13;100729.56;;;1.45;81.64
17607;BME280;8922;52.240;20.980;2022-12-20T06:07:44;100718.59;;;1.47;81.36
17607;BME280;8922;52.240;20.980;2022-12-20T06:10:12;100715.19;;;1.46;81.77
17607;BME280;8922;52.240;20.980;2022-12-20T06:12:41;100721.25;;;1.50;81.35
17607;BME280;8922;52.240;20.980;2022-12-20T06:15:10;100722.16;;;1.52;81.55
17607;BME280;8922;52.240;20.980;2022-12-20T06:17:42;100717.09;;;1.52;81.11
17607;BME280;8922;52.240;20.980;2022-12-20T06:20:16;100724.72;;;1.52;81.20
17607;BME280;8922;52.240;20.980;2022-12-20T06:22:44;100720.50;;;1.52;81.37
17607;BME280;8922;52.240;20.980;2022-12-20T06:25:13;100722.16;;;1.52;81.09
17607;BME280;8922;52.240;20.980;2022-12-20T06:27:42;100724.81;;;1.55;80.96
17607;BME280;8922;52.240;20.980;2022-12-20T06:30:13;100728.28;;;1.57;80.73
17607;BME280;8922;52.240;20.980;2022-12-20T06:32:47;100729.91;;;1.55;80.77
17607;BME280;8922;52.240;20.980;2022-12-20T06:35:17;100726.53;;;1.56;80.96
17607;BME280;8922;52.240;20.980;2022-12-20T06:37:46;100741.09;;;1.60;80.84
17607;BME280;8922;52.240;20.980;2022-12-20T06:40:16;100734.31;;;1.60;80.65
17607;BME280;8922;52.240;20.980;2022-12-20T06:42:45;100728.38;;;1.60;80.49
17607;BME280;8922;52.240;20.980;2022-12-20T06:45:15;100728.38;;;1.60;80.40
17607;BME280;8922;52.240;20.980;2022-12-20T06:47:45;100720.75;;;1.60;80.22
17607;BME280;8922;52.240;20.980;2022-12-20T06:50:14;100726.75;;;1.62;80.42
17607;BME280;8922;52.240;20.980;2022-12-20T06:52:43;100731.81;;;1.62;80.28
17607;BME280;8922;52.240;20.980;2022-12-20T06:55:11;100733.69;;;1.66;80.17
17607;BME280;8922;52.240;20.980;2022-12-20T06:57:39;100734.59;;;1.68;80.18
17607;BME280;8922;52.240;20.980;2022-12-20T07:00:10;100733.78;;;1.69;79.66
17607;BME280;8922;52.240;20.980;2022-12-20T07:02:39;100744.16;;;1.75;79.55
17607;BME280;8922;52.240;20.980;2022-12-20T07:05:11;100739.19;;;1.78;79.35
17607;BME280;8922;52.240;20.980;2022-12-20T07:07:40;100736.69;;;1.80;78.95
17607;BME280;8922;52.240;20.980;2022-12-20T07:10:11;100742.75;;;1.83;78.88
17607;BME280;8922;52.240;20.980;2022-12-20T07:12:41;100745.50;;;1.89;78.68
17607;BME280;8922;52.240;20.980;2022-12-20T07:15:15;100744.81;;;1.93;79.00
17607;BME280;8922;52.240;20.980;2022-12-20T07:17:43;100734.69;;;1.95;78.49
17607;BME280;8922;52.240;20.980;2022-12-20T07:20:14;100743.22;;;1.97;78.51
17607;BME280;8922;52.240;20.980;2022-12-20T07:22:46;100737.28;;;1.97;77.90
17607;BME280;8922;52.240;20.980;2022-12-20T07:25:16;100733.03;;;1.96;77.77
17607;BME280;8922;52.240;20.980;2022-12-20T07:27:46;100730.56;;;1.99;77.73
17607;BME280;8922;52.240;20.980;2022-12-20T07:30:17;100735.00;;;2.04;77.86
17607;BME280;8922;52.240;20.980;2022-12-20T07:32:45;100728.25;;;2.05;77.61
17607;BME280;8922;52.240;20.980;2022-12-20T07:35:15;100737.69;;;2.09;77.49
17607;BME280;8922;52.240;20.980;2022-12-20T07:37:44;100733.53;;;2.11;77.43
17607;BME280;8922;52.240;20.980;2022-12-20T07:40:13;100737.84;;;2.13;77.01
17607;BME280;8922;52.240;20.980;2022-12-20T07:42:44;100739.69;;;2.17;76.90
17607;BME280;8922;52.240;20.980;2022-12-20T07:45:15;100734.63;;;2.17;76.77
17607;BME280;8922;52.240;20.980;2022-12-20T07:47:44;100734.75;;;2.22;76.47
17607;BME280;8922;52.240;20.980;2022-12-20T07:50:13;100726.38;;;2.25;76.61
17607;BME280;8922;52.240;20.980;2022-12-20T07:52:45;100723.91;;;2.28;76.21
17607;BME280;8922;52.240;20.980;2022-12-20T07:55:18;100728.25;;;2.30;75.78
17607;BME280;8922;52.240;20.980;2022-12-20T07:57:50;100740.25;;;2.34;75.52
17607;BME280;8922;52.240;20.980;2022-12-20T08:00:20;100737.81;;;2.37;75.55
17607;BME280;8922;52.240;20.980;2022-12-20T08:02:54;100733.69;;;2.41;75.83
17607;BME280;8922;52.240;20.980;2022-12-20T08:05:24;100735.47;;;2.44;74.91
17607;BME280;8922;52.240;20.980;2022-12-20T08:07:55;100734.59;;;2.43;75.16
17607;BME280;8922;52.240;20.980;2022-12-20T08:10:26;100740.59;;;2.45;74.84
17607;BME280;8922;52.240;20.980;2022-12-20T08:12:57;100752.59;;;2.49;74.87
17607;BME280;8922;52.240;20.980;2022-12-20T08:15:27;100740.69;;;2.48;74.25
17607;BME280;8922;52.240;20.980;2022-12-20T08:17:56;100732.31;;;2.51;74.89
17607;BME280;8922;52.240;20.980;2022-12-20T08:20:25;100724.75;;;2.54;74.02
17607;BME280;8922;52.240;20.980;2022-12-20T08:22:54;100726.41;;;2.52;74.02
17607;BME280;8922;52.240;20.980;2022-12-20T08:25:23;100733.31;;;2.56;74.38
17607;BME280;8922;52.240;20.980;2022-12-20T08:27:53;100727.38;;;2.55;74.39
17607;BME280;8922;52.240;20.980;2022-12-20T08:30:22;100729.91;;;2.55;73.41
17607;BME280;8922;52.240;20.980;2022-12-20T08:32:50;100730.88;;;2.59;73.50
17607;BME280;8922;52.240;20.980;2022-12-20T08:35:21;100716.50;;;2.61;73.11
17607;BME280;8922;52.240;20.980;2022-12-20T08:37:50;100715.72;;;2.62;73.29
17607;BME280;8922;52.240;20.980;2022-12-20T08:40:21;100725.09;;;2.64;72.93
17607;BME280;8922;52.240;20.980;2022-12-20T08:42:49;100720.94;;;2.66;73.03
17607;BME280;8922;52.240;20.980;2022-12-20T08:45:18;100719.25;;;2.67;72.66
17607;BME280;8922;52.240;20.980;2022-12-20T08:47:46;100715.94;;;2.70;72.94
17607;BME280;8922;52.240;20.980;2022-12-20T08:50:15;100726.22;;;2.73;72.67
17607;BME280;8922;52.240;20.980;2022-12-20T08:52:43;100723.91;;;2.80;72.89
17607;BME280;8922;52.240;20.980;2022-12-20T08:55:12;100715.56;;;2.86;72.31
17607;BME280;8922;52.240;20.980;2022-12-20T08:57:41;100713.22;;;2.92;72.47
17607;BME280;8922;52.240;20.980;2022-12-20T09:00:12;100715.13;;;2.99;71.99
17607;BME280;8922;52.240;20.980;2022-12-20T09:02:41;100721.19;;;3.03;71.32
17607;BME280;8922;52.240;20.980;2022-12-20T09:05:09;100729.16;;;3.13;70.93
17607;BME280;8922;52.240;20.980;2022-12-20T09:07:38;100721.66;;;3.20;70.86
17607;BME280;8922;52.240;20.980;2022-12-20T09:10:08;100721.03;;;3.27;70.14
17607;BME280;8922;52.240;20.980;2022-12-20T09:12:38;100718.69;;;3.34;70.26
17607;BME280;8922;52.240;20.980;2022-12-20T09:15:09;100713.03;;;3.43;70.11
17607;BME280;8922;52.240;20.980;2022-12-20T09:17:38;100711.75;;;3.59;70.13
17607;BME280;8922;52.240;20.980;2022-12-20T09:20:07;100713.81;;;3.72;68.95
17607;BME280;8922;52.240;20.980;2022-12-20T09:22:36;100712.41;;;3.83;69.05
17607;BME280;8922;52.240;20.980;2022-12-20T09:25:07;100700.94;;;4.01;68.27
17607;BME280;8922;52.240;20.980;2022-12-20T09:27:36;100709.31;;;4.28;67.42
17607;BME280;8922;52.240;20.980;2022-12-20T09:30:08;100712.69;;;4.64;66.71
17607;BME280;8922;52.240;20.980;2022-12-20T09:32:37;100701.97;;;5.18;66.77
17607;BME280;8922;52.240;20.980;2022-12-20T09:35:06;100690.13;;;5.65;64.52
17607;BME280;8922;52.240;20.980;2022-12-20T09:37:35;100694.28;;;6.04;62.56
17607;BME280;8922;52.240;20.980;2022-12-20T09:40:05;100691.38;;;6.36;61.64
17607;BME280;8922;52.240;20.980;2022-12-20T09:42:36;100688.34;;;6.61;60.17
17607;BME280;8922;52.240;20.980;2022-12-20T09:45:12;100688.13;;;7.05;59.00
17607;BME280;8922;52.240;20.980;2022-12-20T09:47:46;100675.06;;;7.58;58.50
17607;BME280;8922;52.240;20.980;2022-12-20T09:50:16;100673.06;;;8.16;56.46
17607;BME280;8922;52.240;20.980;2022-12-20T09:53:02;100684.84;;;9.06;54.16
17607;BME280;8922;52.240;20.980;2022-12-20T09:55:47;100685.13;;;10.02;52.35
17607;BME280;8922;52.240;20.980;2022-12-20T09:58:43;100692.03;;;10.28;48.80
17607;BME280;8922;52.240;20.980;2022-12-20T10:01:23;100688.56;;;10.09;48.06
17607;BME280;8922;52.240;20.980;2022-12-20T10:04:02;100692.81;;;9.90;47.85
17607;BME280;8922;52.240;20.980;2022-12-20T10:06:45;100688.47;;;9.67;48.23
17607;BME280;8922;52.240;20.980;2022-12-20T10:09:35;100680.75;;;9.75;48.56
17607;BME280;8922;52.240;20.980;2022-12-20T10:12:17;100678.22;;;10.64;49.39
17607;BME280;8922;52.240;20.980;2022-12-20T10:15:11;100674.50;;;12.71;46.48
17607;BME280;8922;52.240;20.980;2022-12-20T10:18:21;100672.28;;;15.28;40.14
17607;BME280;8922;52.240;20.980;2022-12-20T10:20:57;100663.78;;;17.01;35.39
17607;BME280;8922;52.240;20.980;2022-12-20T10:23:36;100664.59;;;18.17;33.17
17607;BME280;8922;52.240;20.980;2022-12-20T10:26:09;100659.09;;;18.76;32.23
17607;BME280;8922;52.240;20.980;2022-12-20T10:28:39;100663.16;;;18.33;30.57
17607;BME280;8922;52.240;20.980;2022-12-20T10:31:13;100666.16;;;17.09;31.27
17607;BME280;8922;52.240;20.980;2022-12-20T10:33:44;100665.28;;;15.72;32.93
17607;BME280;8922;52.240;20.980;2022-12-20T10:36:23;100670.59;;;14.32;35.10
17607;BME280;8922;52.240;20.980;2022-12-20T10:38:55;100660.09;;;13.24;36.92
17607;BME280;8922;52.240;20.980;2022-12-20T10:41:26;100664.50;;;12.32;38.45
17607;BME280;8922;52.240;20.980;2022-12-20T10:43:59;100661.56;;;11.58;40.29
17607;BME280;8922;52.240;20.980;2022-12-20T10:46:39;100659.28;;;10.88;41.86
17607;BME280;8922;52.240;20.980;2022-12-20T10:49:30;100660.25;;;10.26;42.62
17607;BME280;8922;52.240;20.980;2022-12-20T10:52:02;100658.47;;;9.82;44.36
17607;BME280;8922;52.240;20.980;2022-12-20T10:54:34;100659.34;;;9.82;45.58
17607;BME280;8922;52.240;20.980;2022-12-20T10:57:17;100657.66;;;9.87;45.17
17607;BME280;8922;52.240;20.980;2022-12-20T10:59:51;100660.19;;;9.74;45.15
17607;BME280;8922;52.240;20.980;2022-12-20T11:02:26;100645.53;;;9.36;45.34
17607;BME280;8922;52.240;20.980;2022-12-20T11:05:22;100635.09;;;8.99;46.41
17607;BME280;8922;52.240;20.980;2022-12-20T11:07:55;100623.81;;;8.73;48.23
17607;BME280;8922;52.240;20.980;2022-12-20T11:10:45;100615.19;;;8.55;48.24
17607;BME280;8922;52.240;20.980;2022-12-20T11:13:25;100607.31;;;8.35;48.27
17607;BME280;8922;52.240;20.980;2022-12-20T11:15:55;100599.44;;;8.09;49.39
17607;BME280;8922;52.240;20.980;2022-12-20T11:18:40;100599.25;;;7.85;49.85
17607;BME280;8922;52.240;20.980;2022-12-20T11:21:24;100591.34;;;7.60;50.15
17607;BME280;8922;52.240;20.980;2022-12-20T11:24:02;100591.09;;;7.36;51.03
17607;BME280;8922;52.240;20.980;2022-12-20T11:26:54;100600.97;;;7.02;51.90
17607;BME280;8922;52.240;20.980;2022-12-20T11:30:01;100597.13;;;6.69;53.03
17607;BME280;8922;52.240;20.980;2022-12-20T11:32:49;100608.78;;;6.46;54.11
17607;BME280;8922;52.240;20.980;2022-12-20T11:35:27;100613.63;;;6.29;54.67
17607;BME280;8922;52.240;20.980;2022-12-20T11:38:09;100620.28;;;6.18;54.95
17607;BME280;8922;52.240;20.980;2022-12-20T11:40:48;100623.47;;;6.03;55.80
17607;BME280;8922;52.240;20.980;2022-12-20T11:43:45;100608.75;;;5.90;55.79
17607;BME280;8922;52.240;20.980;2022-12-20T11:46:50;100603.38;;;5.74;56.69
17607;BME280;8922;52.240;20.980;2022-12-20T11:49:52;100601.41;;;5.60;57.07
17607;BME280;8922;52.240;20.980;2022-12-20T11:52:33;100603.00;;;5.53;57.28
17607;BME280;8922;52.240;20.980;2022-12-20T11:55:18;100599.59;;;5.52;57.98
17607;BME280;8922;52.240;20.980;2022-12-20T11:57:58;100602.16;;;5.54;58.03
17607;BME280;8922;52.240;20.980;2022-12-20T12:00:51;100603.16;;;5.62;57.58
17607;BME280;8922;52.240;20.980;2022-12-20T12:03:29;100599.84;;;5.68;58.08
17607;BME280;8922;52.240;20.980;2022-12-20T12:06:06;100588.19;;;5.84;57.91
17607;BME280;8922;52.240;20.980;2022-12-20T12:08:43;100601.34;;;6.07;57.21
17607;BME280;8922;52.240;20.980;2022-12-20T12:11:19;100598.22;;;6.23;56.61
17607;BME280;8922;52.240;20.980;2022-12-20T12:14:21;100598.31;;;6.31;55.81
17607;BME280;8922;52.240;20.980;2022-12-20T12:16:59;100597.56;;;6.38;56.13
17607;BME280;8922;52.240;20.980;2022-12-20T12:19:36;100587.44;;;6.45;55.89
17607;BME280;8922;52.240;20.980;2022-12-20T12:22:15;100585.00;;;6.54;55.65
17607;BME280;8922;52.240;20.980;2022-12-20T12:24:48;100585.94;;;6.60;55.62
17607;BME280;8922;52.240;20.980;2022-12-20T12:27:23;100582.56;;;6.65;55.39
17607;BME280;8922;52.240;20.980;2022-12-20T12:29:53;100580.06;;;6.68;55.35
17607;BME280;8922;52.240;20.980;2022-12-20T12:32:28;100582.56;;;6.64;54.82
17607;BME280;8922;52.240;20.980;2022-12-20T12:35:17;100582.38;;;6.50;55.25
17607;BME280;8922;52.240;20.980;2022-12-20T12:38:08;100582.19;;;6.35;55.84
17607;BME280;8922;52.240;20.980;2022-12-20T12:41:21;100585.44;;;6.24;55.87
17607;BME280;8922;52.240;20.980;2022-12-20T12:43:56;100593.00;;;6.17;56.44
17607;BME280;8922;52.240;20.980;2022-12-20T12:46:29;100598.91;;;6.14;56.18
17607;BME280;8922;52.240;20.980;2022-12-20T12:49:04;100584.34;;;6.09;56.28
17607;BME280;8922;52.240;20.980;2022-12-20T12:51:37;100574.81;;;6.00;56.37
17607;BME280;8922;52.240;20.980;2022-12-20T12:54:18;100579.75;;;5.89;57.08
17607;BME280;8922;52.240;20.980;2022-12-20T12:56:50;100577.06;;;5.81;57.22
17607;BME280;8922;52.240;20.980;2022-12-20T12:59:41;100572.66;;;5.73;57.16
17607;BME280;8922;52.240;20.980;2022-12-20T13:02:35;100582.69;;;5.61;58.11
17607;BME280;8922;52.240;20.980;2022-12-20T13:05:33;100588.41;;;5.47;57.88
17607;BME280;8922;52.240;20.980;2022-12-20T13:08:13;100594.97;;;5.33;58.91
17607;BME280;8922;52.240;20.980;2022-12-20T13:11:01;100598.03;;;5.15;59.44
17607;BME280;8922;52.240;20.980;2022-12-20T13:13:30;100593.63;;;5.08;59.38
17607;BME280;8922;52.240;20.980;2022-12-20T13:16:27;100602.06;;;5.04;59.89
17607;BME280;8922;52.240;20.980;2022-12-20T13:19:33;100608.06;;;5.04;60.53
17607;BME280;8922;52.240;20.980;2022-12-20T13:22:19;100603.75;;;5.02;60.33
17607;BME280;8922;52.240;20.980;2022-12-20T13:24:53;100609.72;;;5.02;60.33
17607;BME280;8922;52.240;20.980;2022-12-20T13:27:32;100604.53;;;4.99;60.43
17607;BME280;8922;52.240;20.980;2022-12-20T13:30:27;100609.63;;;4.98;61.24
17607;BME280;8922;52.240;20.980;2022-12-20T13:33:39;100614.66;;;4.95;61.51
17607;BME280;8922;52.240;20.980;2022-12-20T13:36:35;100615.38;;;4.88;61.10
17607;BME280;8922;52.240;20.980;2022-12-20T13:39:32;100620.34;;;4.81;61.29
17607;BME280;8922;52.240;20.980;2022-12-20T13:42:33;100618.47;;;4.74;61.98
17607;BME280;8922;52.240;20.980;2022-12-20T13:45:11;100615.00;;;4.71;61.84
17607;BME280;8922;52.240;20.980;2022-12-20T13:47:46;100622.56;;;4.66;61.90
17607;BME280;8922;52.240;20.980;2022-12-20T13:50:30;100619.13;;;4.64;62.71
17607;BME280;8922;52.240;20.980;2022-12-20T13:53:02;100614.75;;;4.60;62.25